Time;durP1;ratioP1;P1;durP2;ratioP2;P2;SDS_P1;SDS_P2;PMS_P1;PMS_P2;Temp;Humidity;BMP_temperature;BMP_pressure;BME280_temperature;BME280_humidity;BME280_pressure;Samples;Min_cycle;Max_cycle;Signal;HPM_P1;HPM_P2
2023/11/27 01:48:28;;;;;;;12.85;6.55;;;7.50;63.60;;;;;;1394333;26;20048;-76
2023/11/27 01:50:53;;;;;;;13.38;6.75;;;7.40;63.80;;;;;;5071732;28;20063;-76
2023/11/27 01:53:19;;;;;;;11.63;6.00;;;7.40;64.00;;;;;;5072224;28;20439;-76
2023/11/27 01:55:46;;;;;;;10.90;6.18;;;7.40;63.30;;;;;;5072148;28;20028;-74
2023/11/27 01:58:11;;;;;;;10.23;6.18;;;7.50;63.50;;;;;;5071931;28;20036;-75
2023/11/27 02:00:38;;;;;;;12.80;6.53;;;7.50;63.30;;;;;;5072005;28;20072;-74
2023/11/27 02:03:04;;;;;;;9.52;5.63;;;7.50;63.20;;;;;;5072158;28;20041;-76
2023/11/27 02:05:30;;;;;;;13.95;6.20;;;7.50;63.30;;;;;;5071775;28;20033;-74
2023/11/27 02:07:56;;;;;;;11.27;5.80;;;7.60;63.30;;;;;;5071353;28;20029;-74
2023/11/27 02:10:22;;;;;;;12.18;5.50;;;7.50;63.20;;;;;;5053810;28;20074;-75
2023/11/27 02:12:48;;;;;;;11.52;5.82;;;7.50;63.20;;;;;;5071587;28;20464;-76
2023/11/27 02:15:14;;;;;;;10.20;5.70;;;7.50;63.30;;;;;;5071886;28;20747;-75
2023/11/27 02:17:39;;;;;;;9.02;5.35;;;7.50;63.30;;;;;;5071645;28;20433;-75
2023/11/27 02:20:06;;;;;;;10.52;5.50;;;7.50;63.30;;;;;;5071829;28;20037;-74
2023/11/27 02:22:31;;;;;;;8.48;5.13;;;7.50;63.10;;;;;;5053484;28;20028;-74
2023/11/27 02:24:57;;;;;;;9.75;5.47;;;7.50;63.30;;;;;;5071606;28;20385;-74
2023/11/27 02:27:23;;;;;;;10.38;5.47;;;7.50;63.20;;;;;;5071620;28;20040;-75
2023/11/27 02:29:48;;;;;;;10.32;5.63;;;7.60;63.30;;;;;;5071312;28;20397;-74
2023/11/27 02:32:14;;;;;;;11.38;5.25;;;7.60;63.30;;;;;;5071477;28;20040;-74
2023/11/27 02:34:44;;;;;;;8.65;5.03;;;7.60;63.20;;;;;;5072423;28;20029;-75
2023/11/27 02:37:10;;;;;;;8.95;5.15;;;7.60;63.20;;;;;;5072234;28;20052;-75
2023/11/27 02:39:36;;;;;;;9.55;4.65;;;7.60;63.00;;;;;;5071547;28;20071;-74
2023/11/27 02:42:02;;;;;;;8.43;4.85;;;7.50;63.10;;;;;;5071273;28;20025;-74
2023/11/27 02:44:27;;;;;;;8.40;4.90;;;7.50;63.20;;;;;;5071423;28;20101;-75
2023/11/27 02:46:53;;;;;;;9.93;4.80;;;7.50;63.10;;;;;;5053010;28;20506;-75
2023/11/27 02:49:19;;;;;;;10.57;4.72;;;7.60;63.10;;;;;;5071190;28;20079;-75
2023/11/27 02:51:44;;;;;;;7.75;4.53;;;7.60;62.90;;;;;;5071204;28;20029;-75
2023/11/27 02:54:10;;;;;;;7.38;4.35;;;7.60;62.70;;;;;;5071229;28;20433;-75
2023/11/27 02:56:36;;;;;;;7.88;4.43;;;7.50;62.60;;;;;;5071916;28;20126;-74
2023/11/27 02:59:02;;;;;;;7.03;4.38;;;7.50;62.60;;;;;;5056894;28;20036;-73
2023/11/27 03:01:28;;;;;;;7.72;4.30;;;7.50;62.60;;;;;;5074519;28;20478;-75
2023/11/27 03:03:54;;;;;;;8.18;4.07;;;7.50;62.50;;;;;;5074732;28;20033;-75
2023/11/27 03:06:19;;;;;;;11.70;4.53;;;7.60;62.70;;;;;;5074631;28;20044;-75
2023/11/27 03:08:45;;;;;;;7.65;4.05;;;7.60;62.40;;;;;;5074556;28;20107;-74
2023/11/27 03:11:11;;;;;;;9.38;3.90;;;7.60;62.50;;;;;;5074643;28;20063;-74
2023/11/27 03:13:38;;;;;;;8.80;4.50;;;7.70;62.60;;;;;;5074502;28;20418;-75
2023/11/27 03:16:05;;;;;;;8.35;3.80;;;7.80;62.60;;;;;;5074323;28;20068;-75
2023/11/27 03:18:30;;;;;;;7.97;4.13;;;7.80;62.30;;;;;;5074460;28;20102;-74
2023/11/27 03:20:57;;;;;;;6.88;4.13;;;7.90;62.30;;;;;;5056442;28;20040;-73
2023/11/27 03:23:24;;;;;;;7.15;3.92;;;7.90;61.90;;;;;;5074702;28;20040;-74
2023/11/27 03:25:50;;;;;;;7.78;3.67;;;8.00;62.10;;;;;;5074295;28;20063;-74
2023/11/27 03:28:16;;;;;;;6.55;3.92;;;8.00;61.70;;;;;;5074181;28;20029;-75
2023/11/27 03:30:42;;;;;;;7.30;3.83;;;8.00;61.70;;;;;;5056279;28;20060;-74
2023/11/27 03:33:08;;;;;;;6.57;3.70;;;8.00;61.70;;;;;;5074218;28;20159;-75
2023/11/27 03:35:33;;;;;;;9.02;4.00;;;8.00;61.50;;;;;;5073856;28;20507;-75
2023/11/27 03:37:59;;;;;;;8.30;4.13;;;8.10;61.50;;;;;;5073965;28;20032;-75
2023/11/27 03:40:25;;;;;;;6.00;3.80;;;8.00;61.10;;;;;;5074085;28;20033;-74
2023/11/27 03:42:51;;;;;;;7.45;3.65;;;8.10;61.30;;;;;;5074040;28;20179;-74
2023/11/27 03:45:16;;;;;;;7.60;4.00;;;8.10;61.30;;;;;;5073563;28;20040;-74
2023/11/27 03:47:42;;;;;;;6.32;3.30;;;8.10;61.20;;;;;;5074066;28;20098;-75
2023/11/27 03:50:10;;;;;;;8.27;3.53;;;8.10;61.30;;;;;;5073531;28;20065;-75
2023/11/27 03:52:36;;;;;;;6.45;3.42;;;8.10;61.10;;;;;;5073807;28;20051;-74
2023/11/27 03:55:02;;;;;;;7.38;3.55;;;8.20;61.10;;;;;;5073653;28;20475;-74
2023/11/27 03:57:28;;;;;;;9.50;4.20;;;8.20;61.10;;;;;;5073784;28;20042;-75
2023/11/27 03:59:54;;;;;;;8.32;3.60;;;8.20;61.00;;;;;;5073498;28;20545;-74
2023/11/27 04:02:20;;;;;;;7.80;3.70;;;8.20;60.90;;;;;;5073504;28;20082;-74
2023/11/27 04:04:46;;;;;;;8.45;4.00;;;8.20;60.60;;;;;;5073707;28;20104;-74
2023/11/27 04:07:12;;;;;;;7.28;3.47;;;8.20;60.60;;;;;;5073563;28;20055;-75
2023/11/27 04:09:38;;;;;;;6.43;3.72;;;8.20;60.60;;;;;;5072660;28;20033;-75
2023/11/27 04:12:05;;;;;;;6.68;3.90;;;8.20;60.40;;;;;;5073416;28;20078;-75
2023/11/27 04:14:31;;;;;;;11.32;4.10;;;8.20;60.50;;;;;;5073612;28;20036;-75
2023/11/27 04:16:57;;;;;;;8.32;3.70;;;8.20;60.20;;;;;;5073396;28;20493;-74
2023/11/27 04:19:23;;;;;;;6.93;3.38;;;8.30;60.50;;;;;;5073429;28;20167;-74
2023/11/27 04:21:48;;;;;;;8.98;3.90;;;8.30;60.30;;;;;;5073592;28;20115;-75
2023/11/27 04:24:14;;;;;;;7.85;3.50;;;8.40;60.30;;;;;;5073310;28;20393;-75
2023/11/27 04:26:40;;;;;;;7.93;3.78;;;8.40;60.10;;;;;;5073519;28;20041;-75
2023/11/27 04:29:06;;;;;;;10.65;3.95;;;8.40;60.00;;;;;;5073232;28;20068;-73
2023/11/27 04:31:32;;;;;;;7.65;3.55;;;8.40;60.10;;;;;;5073087;28;20045;-73
2023/11/27 04:33:58;;;;;;;6.50;3.63;;;8.40;60.00;;;;;;5073038;28;20134;-74
2023/11/27 04:36:24;;;;;;;6.80;4.00;;;8.40;60.00;;;;;;5072895;28;20074;-75
2023/11/27 04:38:50;;;;;;;9.43;3.88;;;8.40;60.20;;;;;;5072831;28;20539;-75
2023/11/27 04:41:16;;;;;;;7.63;4.03;;;8.40;60.20;;;;;;5072932;28;20036;-74
2023/11/27 04:43:42;;;;;;;7.32;4.30;;;8.30;60.20;;;;;;5073068;28;20029;-75
2023/11/27 04:46:08;;;;;;;8.05;4.03;;;8.30;60.10;;;;;;5072825;28;20043;-75
2023/11/27 04:48:34;;;;;;;6.40;3.70;;;8.30;60.30;;;;;;5072774;28;20048;-76
2023/11/27 04:51:01;;;;;;;8.60;3.90;;;8.20;60.10;;;;;;5073065;28;20070;-76
2023/11/27 04:53:26;;;;;;;9.60;4.03;;;8.20;60.00;;;;;;5072977;28;20028;-76
2023/11/27 04:55:52;;;;;;;7.68;3.97;;;8.20;60.00;;;;;;5072768;28;20043;-74
2023/11/27 04:58:18;;;;;;;6.43;3.67;;;8.30;60.10;;;;;;5072814;28;20111;-75
2023/11/27 05:00:43;;;;;;;5.78;3.45;;;8.30;59.80;;;;;;5072431;28;20044;-74
2023/11/27 05:03:09;;;;;;;6.97;3.40;;;8.30;60.00;;;;;;5072584;28;20021;-75
2023/11/27 05:05:36;;;;;;;7.78;3.80;;;8.40;59.70;;;;;;5072260;28;20048;-74
2023/11/27 05:08:02;;;;;;;7.68;3.67;;;8.40;59.40;;;;;;5072626;28;20036;-75
2023/11/27 05:10:28;;;;;;;6.88;3.80;;;8.40;59.50;;;;;;5072211;28;20043;-75
2023/11/27 05:12:54;;;;;;;9.13;3.67;;;8.40;59.40;;;;;;5072329;28;20104;-75
2023/11/27 05:15:19;;;;;;;7.75;3.58;;;8.50;59.50;;;;;;5072134;28;20064;-74
2023/11/27 05:17:47;;;;;;;7.25;3.15;;;8.60;59.40;;;;;;5072327;28;20478;-76
2023/11/27 05:20:13;;;;;;;7.05;3.38;;;8.60;59.60;;;;;;5072278;28;20025;-74
2023/11/27 05:22:38;;;;;;;8.15;3.47;;;8.70;59.30;;;;;;5072380;28;20047;-75
2023/11/27 05:25:05;;;;;;;7.40;3.22;;;8.70;58.90;;;;;;5072005;28;20035;-74
2023/11/27 05:27:30;;;;;;;7.70;3.78;;;8.70;59.10;;;;;;5072113;28;20035;-75
2023/11/27 05:29:56;;;;;;;5.70;3.28;;;8.70;58.60;;;;;;5071890;28;20028;-74
2023/11/27 05:32:22;;;;;;;7.90;3.33;;;8.80;57.90;;;;;;5072047;28;20107;-76
2023/11/27 05:34:48;;;;;;;9.38;3.65;;;8.80;57.50;;;;;;5072121;28;20570;-76
2023/11/27 05:37:13;;;;;;;7.45;3.50;;;8.80;57.40;;;;;;5071854;28;20393;-75
2023/11/27 05:39:41;;;;;;;6.07;2.83;;;8.80;57.50;;;;;;5071824;28;20500;-74
2023/11/27 05:42:11;;;;;;;6.25;3.20;;;8.80;57.30;;;;;;5071903;28;20025;-76
2023/11/27 05:44:37;;;;;;;8.52;3.40;;;8.90;57.30;;;;;;5072114;28;20120;-76
2023/11/27 05:47:03;;;;;;;7.88;3.50;;;8.90;57.10;;;;;;5071926;28;20111;-74
2023/11/27 05:49:33;;;;;;;7.28;3.42;;;8.90;56.40;;;;;;5071861;28;20052;-76
2023/11/27 05:51:59;;;;;;;8.50;3.28;;;8.90;57.30;;;;;;5071850;28;20039;-74
2023/11/27 05:54:25;;;;;;;6.63;3.45;;;8.90;56.70;;;;;;5071858;28;20020;-76
2023/11/27 05:56:50;;;;;;;9.45;3.00;;;8.90;57.00;;;;;;5071821;28;20040;-76
2023/11/27 05:59:17;;;;;;;6.50;3.20;;;8.90;56.70;;;;;;5053863;28;20036;-75
2023/11/27 06:01:43;;;;;;;8.55;3.47;;;8.90;56.70;;;;;;5071455;28;20036;-75
2023/11/27 06:04:09;;;;;;;8.10;3.38;;;9.00;56.70;;;;;;5071498;28;20119;-75
2023/11/27 06:06:35;;;;;;;5.78;3.20;;;9.00;56.20;;;;;;5071664;28;20139;-76
2023/11/27 06:09:00;;;;;;;6.22;3.47;;;8.90;56.60;;;;;;5072632;28;20032;-81
2023/11/27 06:11:26;;;;;;;5.53;3.00;;;9.00;57.00;;;;;;5069319;28;20073;-78
2023/11/27 06:13:52;;;;;;;5.38;2.70;;;9.00;56.50;;;;;;5089202;28;20043;-79
2023/11/27 06:16:17;;;;;;;6.30;2.80;;;9.00;56.70;;;;;;5092411;28;20036;-80
2023/11/27 06:18:43;;;;;;;10.43;3.47;;;9.00;57.20;;;;;;5092511;28;20028;-79
2023/11/27 06:21:12;;;;;;;7.97;3.60;;;9.10;57.30;;;;;;5092138;28;20036;-80
2023/11/27 06:23:38;;;;;;;8.65;3.80;;;9.00;57.40;;;;;;5089385;28;20074;-78
2023/11/27 06:26:04;;;;;;;8.93;3.63;;;9.10;57.70;;;;;;5081770;28;20042;-80
2023/11/27 06:28:29;;;;;;;9.05;3.17;;;9.10;58.20;;;;;;5083806;28;20398;-81
2023/11/27 06:30:55;;;;;;;8.30;3.45;;;9.10;58.20;;;;;;5091740;28;20040;-80
2023/11/27 06:33:21;;;;;;;9.43;3.92;;;9.10;58.20;;;;;;5095565;28;20036;-81
2023/11/27 06:35:48;;;;;;;6.90;3.55;;;9.10;58.60;;;;;;5095620;28;20036;-81
2023/11/27 06:38:16;;;;;;;8.95;3.65;;;9.10;58.60;;;;;;5095691;28;20027;-81
2023/11/27 06:40:42;;;;;;;7.68;4.18;;;9.00;58.80;;;;;;5081808;28;20452;-81
2023/11/27 06:43:08;;;;;;;8.30;4.00;;;9.10;59.20;;;;;;5075422;28;20124;-80
2023/11/27 06:45:35;;;;;;;9.25;4.68;;;9.10;59.30;;;;;;5075206;28;20118;-86
2023/11/27 06:48:00;;;;;;;8.45;3.28;;;9.20;59.50;;;;;;5078043;28;20049;-81
2023/11/27 06:50:26;;;;;;;9.73;3.67;;;9.20;59.70;;;;;;5074989;28;20083;-81
2023/11/27 06:52:52;;;;;;;6.20;3.72;;;9.20;59.90;;;;;;5075280;28;20037;-81
2023/11/27 06:55:18;;;;;;;6.93;3.58;;;9.30;60.00;;;;;;5075099;28;20127;-81
2023/11/27 06:57:44;;;;;;;8.23;3.28;;;9.40;59.80;;;;;;5080691;28;20116;-82
2023/11/27 07:00:10;;;;;;;9.07;3.78;;;9.60;59.70;;;;;;5074949;28;20127;-82
2023/11/27 07:02:37;;;;;;;10.60;3.50;;;9.70;59.60;;;;;;5075303;28;20035;-80
2023/11/27 07:05:05;;;;;;;8.15;3.50;;;9.60;59.40;;;;;;5074829;28;20033;-81
2023/11/27 07:07:31;;;;;;;7.10;3.83;;;9.60;59.70;;;;;;5094584;28;20040;-82
2023/11/27 07:09:56;;;;;;;10.40;3.40;;;9.60;59.90;;;;;;5095315;28;20488;-82
2023/11/27 07:12:23;;;;;;;9.68;3.60;;;9.60;60.20;;;;;;5061142;28;20135;-80
2023/11/27 07:14:49;;;;;;;7.35;3.53;;;9.50;60.20;;;;;;5074874;28;20037;-82
2023/11/27 07:17:15;;;;;;;7.65;3.80;;;9.40;60.50;;;;;;5059153;28;20384;-83
2023/11/27 07:19:41;;;;;;;9.45;4.03;;;9.40;60.70;;;;;;5053057;28;20075;-81
2023/11/27 07:22:07;;;;;;;10.85;4.13;;;9.50;60.90;;;;;;5053827;28;20443;-81
2023/11/27 07:24:33;;;;;;;12.30;4.18;;;9.50;61.00;;;;;;5053999;28;20048;-82
2023/11/27 07:26:59;;;;;;;8.73;3.75;;;9.50;61.00;;;;;;5054233;28;20049;-76
2023/11/27 07:29:24;;;;;;;8.77;4.32;;;9.50;61.10;;;;;;5053730;28;20045;-77
2023/11/27 07:31:50;;;;;;;13.35;4.38;;;9.60;61.40;;;;;;5054258;28;20036;-75
2023/11/27 07:34:16;;;;;;;13.13;4.72;;;9.70;61.40;;;;;;5054404;28;20376;-76
2023/11/27 07:36:41;;;;;;;9.90;4.65;;;9.80;61.50;;;;;;5054670;28;20029;-75
2023/11/27 07:39:10;;;;;;;12.85;4.50;;;9.80;61.40;;;;;;5055380;28;20037;-76
2023/11/27 07:41:36;;;;;;;8.73;4.32;;;9.90;61.70;;;;;;5054045;28;20103;-76
2023/11/27 07:44:03;;;;;;;8.27;4.57;;;10.00;60.70;;;;;;5035814;28;20047;-76
2023/11/27 07:46:28;;;;;;;10.02;4.00;;;10.00;60.70;;;;;;5053969;28;20037;-76
2023/11/27 07:48:54;;;;;;;7.95;4.32;;;10.10;60.60;;;;;;5054001;28;20060;-75
2023/11/27 07:51:20;;;;;;;8.77;4.20;;;10.20;60.60;;;;;;5054207;28;20060;-76
2023/11/27 07:53:47;;;;;;;11.52;4.50;;;10.30;60.90;;;;;;5054211;28;20037;-80
2023/11/27 07:56:13;;;;;;;10.40;4.95;;;10.30;60.70;;;;;;5053883;28;20108;-84
2023/11/27 07:58:41;;;;;;;12.18;4.80;;;10.30;60.80;;;;;;5054201;28;20036;-82
2023/11/27 08:01:07;;;;;;;8.45;4.45;;;10.30;60.90;;;;;;5053932;28;20502;-85
2023/11/27 08:03:35;;;;;;;10.50;4.07;;;10.30;60.70;;;;;;5036858;28;20033;-85
2023/11/27 08:06:01;;;;;;;11.80;4.57;;;10.40;60.80;;;;;;5056523;28;20037;-84
2023/11/27 08:08:28;;;;;;;9.23;4.38;;;10.40;61.00;;;;;;5059103;28;20085;-79
2023/11/27 08:10:53;;;;;;;10.77;4.50;;;10.40;61.00;;;;;;5040854;28;20390;-82
2023/11/27 08:13:19;;;;;;;9.43;4.25;;;10.60;61.20;;;;;;5056643;28;20030;-83
2023/11/27 08:15:45;;;;;;;11.10;3.95;;;10.70;61.40;;;;;;5055491;28;20039;-84
2023/11/27 08:18:11;;;;;;;13.48;4.65;;;10.90;61.80;;;;;;5054310;28;20063;-82
2023/11/27 08:20:38;;;;;;;11.98;4.60;;;11.00;61.70;;;;;;5055278;28;20394;-85
2023/11/27 08:23:04;;;;;;;15.43;5.25;;;11.20;61.80;;;;;;5055411;28;20041;-83
2023/11/27 08:25:30;;;;;;;10.38;5.22;;;11.30;62.10;;;;;;5056457;28;20045;-83
2023/11/27 08:27:57;;;;;;;11.55;5.97;;;11.40;62.20;;;;;;5036417;28;20037;-84
2023/11/27 08:30:24;;;;;;;11.07;4.82;;;11.50;62.70;;;;;;5054475;28;20060;-85
2023/11/27 08:32:50;;;;;;;11.00;5.40;;;11.50;62.90;;;;;;5053903;28;20482;-84
2023/11/27 08:35:17;;;;;;;11.77;6.18;;;11.60;63.40;;;;;;5053753;28;20033;-83
2023/11/27 08:37:43;;;;;;;17.95;5.70;;;11.70;63.20;;;;;;5053960;28;20124;-85
2023/11/27 08:40:12;;;;;;;11.27;5.65;;;11.80;63.20;;;;;;5053820;28;20052;-86
2023/11/27 08:42:39;;;;;;;9.98;5.28;;;11.90;63.60;;;;;;5036335;28;20048;-85
2023/11/27 08:45:16;;;;;;;11.82;5.47;;;12.10;63.60;;;;;;5053722;28;20040;-84
2023/11/27 08:47:51;;;;;;;11.00;5.60;;;12.10;64.30;;;;;;5053970;28;20112;-84
2023/11/27 08:50:19;;;;;;;11.43;5.35;;;12.20;64.00;;;;;;5037305;28;20079;-85
2023/11/27 08:52:45;;;;;;;21.08;12.50;;;12.30;64.20;;;;;;5054175;28;20043;-84
2023/11/27 08:55:18;;;;;;;12.52;8.00;;;12.40;64.40;;;;;;5053861;28;20087;-82
2023/11/27 08:57:47;;;;;;;11.33;5.77;;;12.50;64.80;;;;;;5054859;28;20082;-83
2023/11/27 09:00:18;;;;;;;12.00;6.15;;;12.60;65.30;;;;;;5054654;28;20033;-85
2023/11/27 09:02:48;;;;;;;11.40;5.75;;;12.60;65.00;;;;;;5054731;28;20037;-86
2023/11/27 09:05:14;;;;;;;11.38;5.05;;;12.70;65.10;;;;;;5054246;28;20060;-84
2023/11/27 09:07:40;;;;;;;7.18;3.20;;;12.80;65.20;;;;;;5054395;28;20491;-84
2023/11/27 09:10:06;;;;;;;12.50;3.20;;;12.90;65.50;;;;;;5054324;28;20041;-85
2023/11/27 09:12:32;;;;;;;8.65;3.22;;;13.00;66.30;;;;;;5053225;28;20321;-84
2023/11/27 09:14:59;;;;;;;5.97;2.42;;;13.10;66.20;;;;;;5052788;28;20063;-84
2023/11/27 09:17:24;;;;;;;5.95;2.22;;;13.10;66.50;;;;;;5052753;28;20033;-84
2023/11/27 09:19:50;;;;;;;11.45;2.35;;;13.20;66.40;;;;;;5053094;28;20041;-83
2023/11/27 09:22:16;;;;;;;9.40;2.25;;;13.30;66.90;;;;;;5053075;28;20096;-84
2023/11/27 09:24:42;;;;;;;4.25;2.00;;;13.30;66.80;;;;;;5053828;28;20121;-84
2023/11/27 09:27:08;;;;;;;4.63;1.90;;;13.40;67.10;;;;;;5052854;28;20119;-83
2023/11/27 09:29:34;;;;;;;6.35;2.10;;;13.40;67.20;;;;;;5052624;28;20495;-86
2023/11/27 09:32:02;;;;;;;6.47;2.20;;;13.40;67.20;;;;;;5053642;28;20071;-82
2023/11/27 09:34:28;;;;;;;8.68;2.45;;;13.40;67.30;;;;;;5053215;28;20026;-84
2023/11/27 09:36:54;;;;;;;9.23;2.22;;;13.40;67.40;;;;;;5052995;28;20029;-82
2023/11/27 09:39:20;;;;;;;8.82;2.67;;;13.40;67.50;;;;;;5052533;28;20041;-84
2023/11/27 09:41:45;;;;;;;14.07;2.50;;;13.40;67.70;;;;;;5053441;28;20055;-84
2023/11/27 09:44:13;;;;;;;8.13;2.60;;;13.40;67.70;;;;;;5053560;28;20108;-84
2023/11/27 09:46:42;;;;;;;5.13;2.17;;;13.30;67.60;;;;;;5035209;28;20118;-84
2023/11/27 09:49:10;;;;;;;8.82;2.20;;;13.30;67.90;;;;;;5038245;28;20098;-84
2023/11/27 09:51:38;;;;;;;5.97;2.50;;;13.30;68.00;;;;;;5037301;28;20494;-85
2023/11/27 09:54:06;;;;;;;8.77;2.00;;;13.30;68.30;;;;;;5052845;28;20152;-82
2023/11/27 09:56:33;;;;;;;5.55;1.88;;;13.30;68.20;;;;;;5052592;28;20037;-83
2023/11/27 09:59:01;;;;;;;7.40;2.45;;;13.20;68.00;;;;;;5037296;28;20029;-82
2023/11/27 10:01:29;;;;;;;27.58;13.52;;;13.20;68.30;;;;;;5054290;28;20429;-83
2023/11/27 10:03:59;;;;;;;14.52;8.15;;;13.20;68.40;;;;;;5052902;28;20061;-82
2023/11/27 10:06:33;;;;;;;9.23;3.50;;;13.20;68.60;;;;;;5052960;28;20107;-84
2023/11/27 10:09:09;;;;;;;7.65;2.70;;;13.30;68.60;;;;;;5056411;28;20021;-83
2023/11/27 10:11:35;;;;;;;7.38;2.72;;;13.30;68.90;;;;;;5058182;28;20037;-85
2023/11/27 10:14:04;;;;;;;7.43;2.63;;;13.30;68.70;;;;;;5055839;28;20103;-83
2023/11/27 10:16:31;;;;;;;8.00;2.88;;;13.40;68.40;;;;;;5056252;28;20459;-84
2023/11/27 10:19:06;;;;;;;12.95;2.80;;;13.60;68.50;;;;;;5056262;28;20029;-83
2023/11/27 10:21:36;;;;;;;8.88;3.00;;;13.80;68.30;;;;;;5055960;28;20025;-85
2023/11/27 10:24:08;;;;;;;3.95;1.83;;;13.90;67.80;;;;;;5055887;28;20396;-84
2023/11/27 10:26:37;;;;;;;7.80;2.50;;;14.10;68.30;;;;;;5056034;28;20069;-82
2023/11/27 10:29:03;;;;;;;8.90;2.63;;;14.20;67.50;;;;;;5056002;28;20033;-84
2023/11/27 10:31:30;;;;;;;7.18;2.42;;;14.30;67.20;;;;;;5056070;28;20479;-84
2023/11/27 10:33:56;;;;;;;9.95;2.35;;;14.30;67.00;;;;;;5055964;28;20025;-84
2023/11/27 10:36:25;;;;;;;7.30;2.45;;;14.40;66.90;;;;;;5055652;28;20036;-83
2023/11/27 10:39:14;;;;;;;7.57;2.20;;;14.40;66.70;;;;;;5056298;28;20061;-84
2023/11/27 10:41:45;;;;;;;6.43;2.15;;;14.50;67.10;;;;;;5063133;28;20059;-82
2023/11/27 10:44:13;;;;;;;5.22;1.98;;;14.60;67.00;;;;;;5063531;28;20041;-82
2023/11/27 10:46:43;;;;;;;7.50;2.33;;;14.60;66.20;;;;;;5056865;28;20069;-84
2023/11/27 13:11:48;;;;;;;13.40;3.25;;;15.80;65.20;;;;;;5050724;23;20147;-81
2023/11/27 13:14:13;;;;;;;11.25;3.25;;;15.80;65.00;;;;;;5074728;28;20075;-80
2023/11/27 13:16:39;;;;;;;12.20;3.40;;;15.70;65.20;;;;;;5094150;28;20024;-81
2023/11/27 13:19:07;;;;;;;6.75;2.95;;;15.70;65.40;;;;;;5094328;28;20031;-80
2023/11/27 13:21:33;;;;;;;9.40;3.33;;;15.70;65.90;;;;;;5075700;28;20156;-80
2023/11/27 13:23:59;;;;;;;12.98;3.65;;;15.60;65.70;;;;;;5093864;28;20106;-81
2023/11/27 13:26:35;;;;;;;9.48;2.88;;;15.60;65.90;;;;;;5094467;28;20126;-81
2023/11/27 13:29:03;;;;;;;16.42;4.03;;;15.60;66.50;;;;;;5077182;28;20394;-81
2023/11/27 13:31:28;;;;;;;10.35;2.58;;;15.60;66.20;;;;;;5094138;28;20689;-82
2023/11/27 13:33:55;;;;;;;10.07;3.63;;;15.50;66.50;;;;;;5094371;28;20484;-80
2023/11/27 13:36:22;;;;;;;12.80;3.65;;;15.50;66.60;;;;;;5075819;28;20028;-80
2023/11/27 13:38:50;;;;;;;8.52;3.38;;;15.40;66.90;;;;;;5093576;28;20426;-81
2023/11/27 13:41:15;;;;;;;10.40;3.40;;;15.40;66.80;;;;;;5093051;28;20043;-79
2023/11/27 13:43:42;;;;;;;12.77;4.10;;;15.30;67.10;;;;;;5092960;28;20032;-80
2023/11/27 13:46:10;;;;;;;8.60;3.60;;;15.30;67.40;;;;;;5074493;28;20051;-80
2023/11/27 13:48:36;;;;;;;14.05;3.90;;;15.20;67.80;;;;;;5093436;28;20059;-80
2023/11/27 13:51:14;;;;;;;9.73;3.35;;;15.20;68.20;;;;;;5093169;28;20060;-79
2023/11/27 13:53:44;;;;;;;13.27;3.88;;;15.10;69.10;;;;;;5092759;28;20081;-80
2023/11/27 13:56:18;;;;;;;10.98;3.20;;;15.10;69.60;;;;;;5074984;28;20028;-78
2023/11/27 13:58:51;;;;;;;13.82;4.07;;;15.10;70.10;;;;;;5094043;28;20507;-80
2023/11/27 14:01:21;;;;;;;9.68;3.22;;;15.10;70.80;;;;;;5094758;28;20038;-80
2023/11/27 14:03:48;;;;;;;13.35;4.22;;;15.10;71.30;;;;;;5075833;28;20028;-80
2023/11/27 14:06:23;;;;;;;8.85;4.28;;;15.00;71.60;;;;;;5074937;28;20044;-79
2023/11/27 14:08:54;;;;;;;8.90;3.58;;;15.00;72.00;;;;;;5092934;28;20057;-79
2023/11/27 14:11:26;;;;;;;11.75;3.65;;;15.00;72.40;;;;;;5092728;28;20039;-79
2023/11/27 14:13:56;;;;;;;12.50;3.60;;;14.90;72.60;;;;;;5092822;28;20056;-80
2023/11/27 14:16:27;;;;;;;11.27;3.55;;;14.80;73.00;;;;;;5092379;28;20036;-80
2023/11/27 14:24:44;;;;;;;11.88;3.33;;;14.60;73.80;;;;;;5092418;28;20075;-77
2023/11/27 14:29:47;;;;;;;8.98;4.22;;;14.40;74.50;;;;;;5092507;28;20085;-78
2023/11/27 14:32:15;;;;;;;14.63;4.53;;;14.40;75.00;;;;;;5094061;28;20040;-80
2023/11/27 14:34:45;;;;;;;9.52;3.70;;;14.30;75.40;;;;;;5092298;28;20071;-78
2023/11/27 14:37:15;;;;;;;12.88;4.05;;;14.30;75.80;;;;;;5092134;28;20111;-79
2023/11/27 14:39:42;;;;;;;8.20;3.65;;;14.30;76.20;;;;;;5092403;28;20380;-80
2023/11/27 14:42:08;;;;;;;12.95;3.90;;;14.30;76.20;;;;;;5091856;28;20539;-79
2023/11/27 14:44:34;;;;;;;12.48;4.03;;;14.30;76.70;;;;;;5091740;28;20486;-80
2023/11/27 14:47:00;;;;;;;9.15;3.72;;;14.20;77.10;;;;;;5092028;28;20048;-80
2023/11/27 14:49:28;;;;;;;10.88;4.47;;;14.20;77.30;;;;;;5091796;28;20054;-79
2023/11/27 14:52:07;;;;;;;12.02;4.25;;;14.20;77.60;;;;;;5091834;28;20485;-81
2023/11/27 14:54:34;;;;;;;16.85;6.25;;;14.20;77.80;;;;;;5096414;28;20504;-79
2023/11/27 14:57:00;;;;;;;9.73;3.38;;;14.10;78.20;;;;;;5098068;28;20114;-78
2023/11/27 14:59:26;;;;;;;12.90;3.60;;;14.00;78.60;;;;;;5097520;28;20040;-76
2023/11/27 15:01:53;;;;;;;9.75;3.55;;;13.90;79.20;;;;;;5095642;28;20401;-79
2023/11/27 15:04:20;;;;;;;10.73;3.45;;;13.80;79.30;;;;;;5095865;28;20115;-78
2023/11/27 15:06:46;;;;;;;13.30;3.75;;;13.80;79.70;;;;;;5097066;28;20071;-77
2023/11/27 15:09:21;;;;;;;9.75;3.35;;;13.80;80.00;;;;;;5095912;28;20060;-77
2023/11/27 15:11:51;;;;;;;22.13;4.38;;;13.70;80.70;;;;;;5095989;28;20048;-79
2023/11/27 15:14:21;;;;;;;13.38;4.00;;;13.70;80.80;;;;;;5095358;28;20489;-75
2023/11/27 15:16:53;;;;;;;8.82;3.70;;;13.70;81.20;;;;;;5095359;28;20029;-79
2023/11/27 15:19:20;;;;;;;11.77;3.70;;;13.70;81.40;;;;;;5095097;28;20381;-79
2023/11/27 15:21:47;;;;;;;11.18;3.88;;;13.60;81.60;;;;;;5095008;28;20040;-79
2023/11/27 15:24:15;;;;;;;12.13;3.80;;;13.60;82.00;;;;;;5095453;28;20043;-80
2023/11/27 15:26:41;;;;;;;13.25;4.18;;;13.60;82.40;;;;;;5094943;28;20482;-79
2023/11/27 15:29:12;;;;;;;8.90;3.50;;;13.60;82.60;;;;;;5095023;28;20587;-79
2023/11/27 15:31:39;;;;;;;10.25;3.75;;;13.50;82.80;;;;;;5094953;28;20480;-79
2023/11/27 15:34:08;;;;;;;11.10;3.50;;;13.50;83.10;;;;;;5076589;28;20172;-77
2023/11/27 15:36:38;;;;;;;13.90;4.15;;;13.50;83.10;;;;;;5094840;28;20501;-79
2023/11/27 15:41:50;;;;;;;11.55;4.10;;;13.50;83.70;;;;;;5095205;28;20034;-80
2023/11/27 15:44:16;;;;;;;11.95;3.65;;;13.40;83.80;;;;;;5094538;28;20032;-79
2023/11/27 15:46:45;;;;;;;11.73;4.20;;;13.40;83.70;;;;;;5076156;28;20089;-79
2023/11/27 15:49:10;;;;;;;14.10;5.10;;;13.40;84.10;;;;;;5094721;28;20467;-78
2023/11/27 15:51:37;;;;;;;14.75;5.40;;;13.40;84.00;;;;;;5094627;28;20111;-79
2023/11/27 15:54:07;;;;;;;10.27;4.72;;;13.40;84.30;;;;;;5094771;28;20054;-79
2023/11/27 15:56:33;;;;;;;10.98;4.95;;;13.40;84.70;;;;;;5094388;28;20036;-79
2023/11/27 15:59:00;;;;;;;13.60;5.57;;;13.40;84.80;;;;;;5094579;28;20028;-78
2023/11/27 16:01:26;;;;;;;12.75;6.30;;;13.30;85.00;;;;;;5094278;28;20036;-80
2023/11/27 16:03:52;;;;;;;14.20;6.50;;;13.30;85.40;;;;;;5075086;28;20032;-80
2023/11/27 16:06:18;;;;;;;13.30;6.20;;;13.20;85.70;;;;;;5094035;28;20134;-80
2023/11/27 16:08:43;;;;;;;17.50;6.30;;;13.10;86.10;;;;;;5094259;28;20424;-79
2023/11/27 16:11:09;;;;;;;15.85;7.28;;;13.00;86.60;;;;;;5094488;28;20115;-76
2023/11/27 16:13:36;;;;;;;14.45;7.00;;;12.90;87.00;;;;;;5093950;28;20353;-78
2023/11/27 16:16:02;;;;;;;14.50;6.82;;;12.90;87.00;;;;;;5097151;28;20028;-76
2023/11/27 16:18:29;;;;;;;12.05;6.85;;;12.80;87.20;;;;;;5094042;28;20032;-80
2023/11/27 16:20:59;;;;;;;15.75;7.07;;;12.70;87.10;;;;;;5094155;28;20047;-78
2023/11/27 16:23:27;;;;;;;13.70;7.63;;;12.70;87.40;;;;;;5094160;28;20085;-79
2023/11/27 16:25:54;;;;;;;16.00;7.75;;;12.60;87.00;;;;;;5094426;28;20042;-79
2023/11/27 16:28:19;;;;;;;18.88;7.97;;;12.60;88.00;;;;;;5093856;28;20107;-79
2023/11/27 16:30:45;;;;;;;20.88;12.25;;;12.50;87.60;;;;;;5095319;28;20075;-72
2023/11/27 16:33:11;;;;;;;17.70;10.05;;;12.50;87.80;;;;;;5094907;28;20028;-79
2023/11/27 16:35:37;;;;;;;16.45;6.97;;;12.50;87.90;;;;;;5094445;28;20466;-82
2023/11/27 16:38:04;;;;;;;19.83;9.60;;;12.50;88.10;;;;;;5094157;28;20032;-78
2023/11/27 16:40:31;;;;;;;19.45;10.90;;;12.50;88.20;;;;;;5093799;28;20032;-83
2023/11/27 16:42:57;;;;;;;21.30;12.02;;;12.50;88.00;;;;;;5094002;28;20374;-80
2023/11/27 16:45:25;;;;;;;14.73;8.73;;;12.60;88.10;;;;;;5093794;28;20051;-80
2023/11/27 16:47:53;;;;;;;14.80;9.40;;;12.50;88.40;;;;;;5075680;28;20089;-80
2023/11/27 16:50:24;;;;;;;17.33;8.43;;;12.50;88.40;;;;;;5093630;28;20032;-83
2023/11/27 16:52:51;;;;;;;15.38;8.75;;;12.50;88.60;;;;;;5076859;28;20081;-76
2023/11/27 16:55:17;;;;;;;14.93;8.85;;;12.50;88.60;;;;;;5094546;28;20035;-77
2023/11/27 16:57:48;;;;;;;14.85;8.55;;;12.40;88.80;;;;;;5078701;28;20393;-79
2023/11/27 17:00:22;;;;;;;16.80;8.70;;;12.40;88.80;;;;;;5095566;28;20036;-81
2023/11/27 17:02:49;;;;;;;14.73;8.57;;;12.40;88.60;;;;;;5094057;28;20060;-80
2023/11/27 17:05:15;;;;;;;16.98;9.25;;;12.40;88.90;;;;;;5093771;28;20028;-78
2023/11/27 17:07:41;;;;;;;15.75;8.70;;;12.30;88.50;;;;;;5094689;28;20093;-77